Time;durP1;ratioP1;P1;durP2;ratioP2;P2;SDS_P1;SDS_P2;PMS_P1;PMS_P2;Temp;Humidity;BMP_temperature;BMP_pressure;BME280_temperature;BME280_humidity;BME280_pressure;Samples;Min_cycle;Max_cycle;Signal;HPM_P1;HPM_P2
2023/04/24 00:00:44;;;;;;;18.50;11.20;;;;;;;9.91;76.69;98932.44;218601;1257;140044;-73
2023/04/24 00:06:00;;;;;;;18.90;13.80;;;;;;;9.92;76.83;98934.14;218233;1260;140047;-74
2023/04/24 00:11:03;;;;;;;14.90;11.90;;;;;;;9.95;77.09;98929.40;217817;1261;140250;-74
2023/04/24 00:16:08;;;;;;;21.30;14.40;;;;;;;9.95;77.31;98922.42;218935;1257;139750;-76
2023/04/24 00:21:10;;;;;;;18.10;14.00;;;;;;;10.02;77.78;98919.52;220393;1257;140870;-75
2023/04/24 00:26:13;;;;;;;22.10;14.50;;;;;;;10.09;77.89;98919.30;218746;1260;140413;-74
2023/04/24 00:31:16;;;;;;;18.50;12.10;;;;;;;10.15;77.78;98916.96;220718;1257;140963;-74
2023/04/24 00:36:20;;;;;;;14.90;11.00;;;;;;;10.18;77.89;98913.27;218672;1260;140857;-72
2023/04/24 00:41:25;;;;;;;15.30;10.30;;;;;;;10.10;77.50;98909.30;217965;1260;141229;-73
2023/04/24 00:46:29;;;;;;;17.40;13.40;;;;;;;10.01;77.79;98899.96;218203;1261;140912;-74
2023/04/24 00:51:34;;;;;;;23.40;13.40;;;;;;;10.00;77.94;98892.39;218420;1260;141480;-73
2023/04/24 00:56:36;;;;;;;14.10;12.10;;;;;;;9.97;77.93;98890.82;218304;1260;140845;-74
2023/04/24 01:01:41;;;;;;;14.60;11.90;;;;;;;9.93;77.93;98887.94;219068;1257;141128;-70
2023/04/24 01:06:45;;;;;;;15.40;12.80;;;;;;;9.85;77.98;98883.55;217447;1258;139720;-70
2023/04/24 01:11:49;;;;;;;18.60;11.80;;;;;;;9.77;78.03;98878.04;217947;1256;140130;-72
2023/04/24 01:16:53;;;;;;;20.80;13.70;;;;;;;9.69;78.28;98876.70;217969;1260;140830;-70
2023/04/24 01:21:59;;;;;;;19.20;13.70;;;;;;;9.67;78.50;98875.91;217858;1257;141093;-75
2023/04/24 01:27:02;;;;;;;16.70;13.90;;;;;;;9.70;78.84;98868.50;218035;1257;517025;-72
2023/04/24 01:32:07;;;;;;;17.60;12.10;;;;;;;9.73;78.89;98865.83;218042;1260;142176;-72
2023/04/24 01:37:10;;;;;;;21.70;13.10;;;;;;;9.72;78.91;98862.15;218755;1258;141321;-74
2023/04/24 01:42:14;;;;;;;18.60;12.70;;;;;;;9.74;79.11;98856.25;218347;1258;140476;-69
2023/04/24 01:47:17;;;;;;;17.80;12.60;;;;;;;9.77;79.10;98850.75;218612;1257;139742;-68
2023/04/24 01:52:21;;;;;;;16.50;12.50;;;;;;;9.83;79.27;98843.23;218755;1258;140683;-69
2023/04/24 01:57:24;;;;;;;17.10;14.40;;;;;;;9.84;79.26;98840.30;218342;1260;141662;-67
2023/04/24 02:02:28;;;;;;;18.70;12.70;;;;;;;9.84;79.23;98837.59;218952;1257;141209;-66
2023/04/24 02:07:32;;;;;;;16.90;13.00;;;;;;;9.82;79.26;98833.95;218189;1260;139792;-70
2023/04/24 02:12:35;;;;;;;17.60;12.70;;;;;;;9.81;79.26;98828.56;219512;1257;140481;-71
2023/04/24 02:17:38;;;;;;;19.50;12.00;;;;;;;9.76;79.09;98825.71;219284;1257;140588;-74
2023/04/24 02:22:41;;;;;;;14.80;12.10;;;;;;;9.68;79.16;98821.70;220597;1257;140588;-72
2023/04/24 02:27:43;;;;;;;15.10;10.50;;;;;;;9.67;79.12;98819.39;218587;1258;140213;-74
2023/04/24 02:32:47;;;;;;;16.00;13.60;;;;;;;9.66;79.31;98813.95;217998;1258;140859;-72
2023/04/24 02:37:51;;;;;;;15.10;11.20;;;;;;;9.66;79.41;98809.86;219165;1257;140868;-71
2023/04/24 02:42:55;;;;;;;16.40;12.40;;;;;;;9.67;79.49;98807.41;218465;1258;140715;-71
2023/04/24 02:47:58;;;;;;;15.80;12.80;;;;;;;9.67;79.66;98807.42;217711;1257;140256;-71
2023/04/24 02:53:03;;;;;;;16.10;10.30;;;;;;;9.73;79.86;98809.08;219136;1256;141492;-72
2023/04/24 02:58:06;;;;;;;15.00;10.30;;;;;;;9.79;80.03;98804.33;217921;1257;140544;-71
2023/04/24 03:03:10;;;;;;;10.40;9.30;;;;;;;9.85;79.97;98803.74;217800;1260;140132;-71
2023/04/24 03:08:15;;;;;;;14.90;10.10;;;;;;;9.91;80.06;98798.27;218587;1256;139711;-72
2023/04/24 03:13:18;;;;;;;15.50;10.50;;;;;;;9.98;79.97;98799.23;217869;1258;140583;-71
2023/04/24 03:18:21;;;;;;;17.00;12.00;;;;;;;10.04;79.85;98804.25;217893;1257;140961;-71
2023/04/24 03:23:25;;;;;;;11.90;9.50;;;;;;;10.08;79.95;98799.95;218228;1256;140261;-70
2023/04/24 03:28:28;;;;;;;13.00;10.70;;;;;;;10.13;79.79;98805.74;218110;1257;139976;-72
2023/04/24 03:33:31;;;;;;;13.90;8.80;;;;;;;10.17;79.81;98802.42;218348;1257;140821;-71
2023/04/24 03:38:33;;;;;;;15.60;9.50;;;;;;;10.24;79.77;98803.35;218229;1256;140717;-72
2023/04/24 03:43:36;;;;;;;19.30;11.10;;;;;;;10.32;79.72;98802.58;218235;1257;141418;-74
2023/04/24 03:48:40;;;;;;;13.50;12.10;;;;;;;10.40;79.51;98802.08;217774;1256;140038;-71
2023/04/24 03:53:43;;;;;;;14.80;10.30;;;;;;;10.49;79.36;98809.66;218652;1258;140779;-71
2023/04/24 03:58:47;;;;;;;13.40;10.20;;;;;;;10.54;79.19;98808.58;219443;1257;141565;-72
2023/04/24 04:03:50;;;;;;;13.10;10.20;;;;;;;10.57;78.88;98808.71;218033;1260;140304;-72
2023/04/24 04:08:53;;;;;;;13.50;10.30;;;;;;;10.64;78.90;98815.41;220488;1257;140994;-72
2023/04/24 04:13:56;;;;;;;9.90;8.20;;;;;;;10.71;78.78;98817.59;220389;1256;140482;-72
2023/04/24 04:18:59;;;;;;;13.90;10.40;;;;;;;10.81;78.65;98815.19;220554;1256;140618;-73
2023/04/24 04:24:05;;;;;;;16.40;12.20;;;;;;;10.89;78.38;98815.77;218467;1256;140911;-70
2023/04/24 04:29:08;;;;;;;12.10;10.20;;;;;;;10.97;78.19;98818.75;219497;1257;140983;-70
2023/04/24 04:34:11;;;;;;;12.40;10.20;;;;;;;11.09;78.12;98818.73;218750;1256;140443;-71
2023/04/24 04:39:18;;;;;;;17.40;9.80;;;;;;;11.30;78.01;98818.52;217665;1255;140062;-69
2023/04/24 04:44:21;;;;;;;12.50;8.80;;;;;;;11.54;78.03;98817.56;219209;1256;140124;-70
2023/04/24 04:49:25;;;;;;;13.20;9.90;;;;;;;11.80;77.90;98820.80;218160;1257;139782;-70
2023/04/24 04:54:28;;;;;;;11.70;8.90;;;;;;;12.09;77.65;98821.85;217941;1257;139708;-70
2023/04/24 04:59:32;;;;;;;15.20;9.30;;;;;;;12.37;77.48;98817.19;217841;1257;139945;-71
2023/04/24 05:04:36;;;;;;;8.50;7.50;;;;;;;12.60;76.77;98815.08;217714;1258;139705;-71
2023/04/24 05:09:38;;;;;;;9.60;8.50;;;;;;;12.80;76.30;98815.84;219018;1256;140508;-72
2023/04/24 05:14:42;;;;;;;8.40;7.70;;;;;;;13.02;75.79;98815.73;217678;1257;140135;-71
2023/04/24 05:19:46;;;;;;;13.00;8.20;;;;;;;13.28;75.32;98815.48;217737;1257;140816;-71
2023/04/24 05:24:50;;;;;;;11.10;8.00;;;;;;;13.52;74.90;98806.97;217828;1257;139794;-71
2023/04/24 05:29:54;;;;;;;13.30;7.90;;;;;;;14.11;73.70;98809.46;217633;1257;140177;-72
2023/04/24 05:34:56;;;;;;;10.10;9.20;;;;;;;15.14;72.29;98811.89;218345;1256;140911;-73
2023/04/24 05:39:59;;;;;;;12.10;8.30;;;;;;;15.64;71.53;98811.27;217709;1259;139949;-73
2023/04/24 05:45:04;;;;;;;12.30;9.20;;;;;;;15.62;70.67;98807.77;217687;1259;162500;-71
2023/04/24 05:50:07;;;;;;;8.90;8.00;;;;;;;15.91;70.21;98807.73;218029;1257;141132;-72
2023/04/24 05:55:10;;;;;;;11.30;8.60;;;;;;;16.33;70.01;98806.90;217776;1257;139636;-72
2023/04/24 06:00:14;;;;;;;7.90;6.50;;;;;;;16.58;69.21;98803.88;217611;1257;141375;-71
2023/04/24 06:05:17;;;;;;;11.20;7.90;;;;;;;16.95;68.36;98803.15;219044;1256;139620;-71
2023/04/24 06:10:24;;;;;;;8.70;8.00;;;;;;;17.10;67.17;98797.45;220309;1256;140895;-71
2023/04/24 06:15:33;;;;;;;9.90;7.00;;;;;;;17.23;67.24;98799.73;217733;1257;141052;-73
2023/04/24 06:20:38;;;;;;;6.80;6.30;;;;;;;17.53;67.00;98793.45;217840;1257;140585;-74
2023/04/24 06:25:42;;;;;;;8.60;7.00;;;;;;;17.68;65.96;98788.64;218393;1260;140198;-73
2023/04/24 06:30:48;;;;;;;7.60;6.90;;;;;;;17.81;64.82;98789.55;217726;1259;139780;-74
2023/04/24 06:35:51;;;;;;;10.30;7.60;;;;;;;17.91;63.35;98789.98;217657;1257;140560;-73
2023/04/24 06:40:56;;;;;;;9.70;6.60;;;;;;;18.03;62.31;98782.74;217953;1257;139785;-73
2023/04/24 06:46:00;;;;;;;7.90;6.60;;;;;;;18.53;61.43;98778.80;217659;1257;139073;-71
2023/04/24 06:51:03;;;;;;;7.50;6.50;;;;;;;18.99;59.77;98772.68;218094;1257;138879;-70
2023/04/24 06:56:06;;;;;;;8.90;7.00;;;;;;;19.87;58.01;98773.42;218048;1256;139593;-71
2023/04/24 07:01:11;;;;;;;7.40;6.60;;;;;;;20.40;56.80;98771.05;217770;1260;139110;-72
2023/04/24 07:06:16;;;;;;;11.20;5.00;;;;;;;20.75;56.09;98768.11;217453;1257;139589;-72
2023/04/24 07:11:20;;;;;;;11.60;6.10;;;;;;;20.97;54.38;98767.11;217722;1257;140629;-71
2023/04/24 07:16:23;;;;;;;6.60;5.90;;;;;;;21.32;54.01;98766.70;218060;1256;139249;-72
2023/04/24 07:21:27;;;;;;;8.00;5.20;;;;;;;21.51;53.37;98764.67;217608;1257;139861;-70
2023/04/24 07:26:33;;;;;;;6.20;5.70;;;;;;;21.86;52.60;98763.18;217846;1259;139437;-70
2023/04/24 07:31:37;;;;;;;6.70;5.90;;;;;;;22.29;52.30;98765.67;217612;1256;139958;-72
2023/04/24 07:36:41;;;;;;;7.30;5.80;;;;;;;22.79;51.18;98766.24;217637;1257;139826;-71
2023/04/24 07:41:45;;;;;;;9.10;6.20;;;;;;;23.16;50.00;98770.31;217734;1257;139622;-73
2023/04/24 07:46:48;;;;;;;6.60;5.00;;;;;;;23.55;49.28;98767.34;217489;1257;139326;-72
2023/04/24 07:51:52;;;;;;;8.10;5.00;;;;;;;23.90;48.25;98764.99;218404;1257;139828;-70
2023/04/24 07:56:56;;;;;;;4.50;4.10;;;;;;;24.15;47.13;98758.77;217560;1256;139328;-73
2023/04/24 08:02:03;;;;;;;6.10;4.90;;;;;;;24.28;46.19;98758.36;219617;1256;139609;-73
2023/04/24 08:07:07;;;;;;;5.80;5.30;;;;;;;24.38;45.14;98752.95;220168;1256;230351;-74
2023/04/24 08:12:11;;;;;;;5.70;4.90;;;;;;;24.50;45.32;98754.04;219183;1256;141800;-73
2023/04/24 08:17:15;;;;;;;6.00;4.90;;;;;;;24.72;44.67;98759.17;217683;1256;140690;-73
2023/04/24 08:22:18;;;;;;;7.40;5.30;;;;;;;24.90;44.26;98752.38;219167;1256;138535;-73
2023/04/24 08:27:21;;;;;;;5.40;4.80;;;;;;;25.14;43.98;98753.03;218511;1257;139032;-74
2023/04/24 08:32:24;;;;;;;7.70;5.10;;;;;;;25.11;42.70;98751.89;218033;1256;140191;-72
2023/04/24 08:37:28;;;;;;;4.60;3.70;;;;;;;24.86;41.75;98751.40;217741;1257;140078;-73
2023/04/24 08:42:36;;;;;;;7.00;4.50;;;;;;;24.65;41.48;98750.61;217962;1257;138807;-74
2023/04/24 08:47:40;;;;;;;3.70;3.40;;;;;;;24.72;42.01;98745.00;217709;1256;139870;-73
2023/04/24 08:52:44;;;;;;;4.60;4.20;;;;;;;24.94;41.81;98732.46;217717;1257;140073;-72
2023/04/24 08:57:54;;;;;;;4.90;4.10;;;;;;;24.92;41.19;98729.85;217611;1260;139266;-73
2023/04/24 09:02:57;;;;;;;6.10;5.30;;;;;;;24.96;40.89;98739.30;217729;1259;139945;-73
2023/04/24 09:08:04;;;;;;;7.00;4.90;;;;;;;24.85;40.20;98735.80;217651;1257;139499;-72
2023/04/24 09:13:11;;;;;;;5.60;5.10;;;;;;;24.69;40.16;98745.32;218078;1260;139429;-72
2023/04/24 09:18:15;;;;;;;5.30;4.90;;;;;;;24.64;40.26;98751.03;218043;1256;139521;-73
2023/04/24 09:23:21;;;;;;;5.60;4.60;;;;;;;24.65;39.84;98746.23;217845;1257;139410;-73
2023/04/24 09:28:39;;;;;;;6.60;5.80;;;;;;;24.59;40.08;98744.98;217734;1256;151396;-74
2023/04/24 09:34:05;;;;;;;6.00;5.40;;;;;;;24.51;39.87;98739.41;217701;1257;139352;-72
2023/04/24 09:39:13;;;;;;;10.40;5.90;;;;;;;24.37;39.67;98730.36;217595;1257;138693;-73
2023/04/24 09:44:22;;;;;;;5.50;4.80;;;;;;;23.95;39.86;98728.50;218299;1256;139063;-73
2023/04/24 09:49:26;;;;;;;5.70;5.20;;;;;;;23.79;39.63;98726.77;217829;1256;139053;-73
2023/04/24 09:54:31;;;;;;;4.80;4.30;;;;;;;23.83;39.69;98721.96;217682;1257;139205;-73
2023/04/24 09:59:33;;;;;;;7.50;5.00;;;;;;;23.90;39.54;98711.86;220341;1256;139666;-75
2023/04/24 10:04:39;;;;;;;5.70;4.60;;;;;;;23.95;39.42;98708.35;218989;1256;139473;-72
2023/04/24 10:09:44;;;;;;;5.30;4.50;;;;;;;23.91;39.34;98705.22;217817;1259;139363;-72
2023/04/24 10:14:48;;;;;;;8.50;5.50;;;;;;;23.83;38.79;98701.91;219621;1256;139806;-74
2023/04/24 10:19:52;;;;;;;6.50;4.90;;;;;;;23.89;38.72;98703.46;217844;1256;139713;-73
2023/04/24 10:24:57;;;;;;;6.20;5.50;;;;;;;23.96;38.34;98699.27;219090;1256;139070;-75
2023/04/24 10:30:02;;;;;;;6.30;5.70;;;;;;;24.24;38.92;98694.50;217787;1257;139091;-73
2023/04/24 10:35:07;;;;;;;8.50;4.60;;;;;;;24.65;38.65;98680.29;217656;1257;140650;-73
2023/04/24 10:40:17;;;;;;;7.80;5.80;;;;;;;24.44;37.99;98682.19;218495;1256;139512;-73
2023/04/24 10:45:22;;;;;;;4.50;4.20;;;;;;;23.93;38.08;98679.86;217725;1257;139939;-73
2023/04/24 10:50:28;;;;;;;6.60;5.90;;;;;;;23.62;38.21;98672.95;217748;1256;140065;-72
2023/04/24 10:56:05;;;;;;;6.30;5.40;;;;;;;23.32;38.54;98673.77;217939;1257;138979;-73
2023/04/24 11:01:08;;;;;;;;;;;;;;;23.32;38.72;98660.56;217899;1256;138784;-73
2023/04/24 11:06:13;;;;;;;4.90;4.40;;;;;;;23.47;39.31;98652.67;218133;1260;126223;-71
2023/04/24 11:11:17;;;;;;;5.20;4.70;;;;;;;23.79;38.81;98652.17;218652;1256;139564;-72
2023/04/24 11:16:32;;;;;;;7.80;5.40;;;;;;;23.86;37.87;98646.84;217795;1257;139166;-73
2023/04/24 11:21:47;;;;;;;5.10;4.60;;;;;;;23.83;38.10;98648.35;218500;1256;140290;-72
2023/04/24 11:27:11;;;;;;;5.50;5.00;;;;;;;23.64;37.13;98650.77;218018;1259;139360;-73
2023/04/24 11:32:37;;;;;;;6.30;5.10;;;;;;;23.54;37.02;98648.99;217591;1257;138766;-73
2023/04/24 11:37:51;;;;;;;5.40;5.00;;;;;;;23.64;37.38;98645.77;217825;1256;138996;-74
2023/04/24 11:43:18;;;;;;;10.50;5.00;;;;;;;23.94;37.24;98644.34;218250;1257;225384;-72
2023/04/24 11:48:22;;;;;;;7.60;4.80;;;;;;;24.12;37.48;98651.64;220612;1256;139465;-73
2023/04/24 11:53:26;;;;;;;7.10;5.70;;;;;;;23.98;36.74;98650.13;220489;1256;138679;-74
2023/04/24 11:58:38;;;;;;;6.60;4.80;;;;;;;23.62;36.54;98644.17;220465;1256;138939;-73
2023/04/24 12:03:47;;;;;;;5.20;4.70;;;;;;;23.64;37.09;98636.77;218861;1256;139196;-73
2023/04/24 12:08:55;;;;;;;5.30;5.00;;;;;;;23.77;36.31;98633.65;217921;1260;141675;-73
2023/04/24 12:14:12;;;;;;;7.50;5.30;;;;;;;23.92;36.25;98628.49;217710;1256;139161;-75
2023/04/24 12:19:22;;;;;;;6.70;5.20;;;;;;;24.11;36.14;98621.45;217775;1259;140152;-73
2023/04/24 12:24:26;;;;;;;5.90;5.40;;;;;;;24.05;36.05;98617.94;218080;1256;139341;-74
2023/04/24 12:29:29;;;;;;;6.20;5.70;;;;;;;23.99;36.49;98618.03;217707;1257;139168;-78
2023/04/24 12:34:33;;;;;;;5.40;4.90;;;;;;;24.00;37.40;98610.73;217756;1257;138778;-73
2023/04/24 12:39:36;;;;;;;7.70;5.10;;;;;;;24.30;37.66;98595.61;217731;1257;139887;-76
2023/04/24 12:44:39;;;;;;;8.70;4.10;;;;;;;24.54;37.35;98591.89;217580;1257;140784;-74
2023/04/24 12:49:42;;;;;;;3.90;3.60;;;;;;;24.63;37.54;98593.91;217857;1259;139092;-73
2023/04/24 12:54:46;;;;;;;5.40;4.90;;;;;;;24.71;37.50;98586.54;218345;1260;139505;-78
2023/04/24 12:59:49;;;;;;;3.70;3.50;;;;;;;24.76;37.16;98581.83;217946;1260;139200;-73
2023/04/24 13:04:53;;;;;;;4.50;4.20;;;;;;;24.44;37.23;98579.71;217625;1259;140532;-73
2023/04/24 13:09:57;;;;;;;5.30;4.80;;;;;;;24.50;37.65;98575.79;217986;1256;140295;-73
2023/04/24 13:15:00;;;;;;;4.40;4.00;;;;;;;24.52;37.72;98563.69;217578;1255;139729;-75
2023/04/24 13:20:03;;;;;;;5.00;4.60;;;;;;;24.42;37.60;98554.52;217847;1257;139053;-75
2023/04/24 13:25:07;;;;;;;8.10;5.30;;;;;;;24.06;37.68;98545.86;217120;1260;548637;-79
2023/04/24 13:30:10;;;;;;;7.40;6.10;;;;;;;23.63;37.60;98544.73;217596;1259;139719;-74
2023/04/24 13:35:13;;;;;;;6.00;3.80;;;;;;;23.60;37.99;98538.02;218664;1256;140099;-76
2023/04/24 13:40:16;;;;;;;5.90;5.40;;;;;;;23.83;37.94;98532.39;218080;1257;139365;-74
2023/04/24 13:45:19;;;;;;;4.80;4.30;;;;;;;23.97;38.07;98524.95;219708;1256;140723;-81
2023/04/24 13:50:28;;;;;;;10.90;4.70;;;;;;;23.96;37.68;98521.27;217739;1257;138855;-74
2023/04/24 13:55:31;;;;;;;5.30;4.90;;;;;;;23.54;37.66;98518.44;217903;1256;140205;-76
2023/04/24 14:00:35;;;;;;;6.50;5.70;;;;;;;23.02;37.78;98519.30;217720;1256;139524;-76
2023/04/24 14:05:38;;;;;;;6.40;5.90;;;;;;;22.63;38.42;98516.29;217621;1257;139389;-76
2023/04/24 14:10:42;;;;;;;6.30;5.60;;;;;;;22.38;39.15;98516.39;218242;1257;138662;-77
2023/04/24 14:15:47;;;;;;;6.30;5.60;;;;;;;22.24;39.76;98511.30;217745;1259;139258;-79
2023/04/24 14:20:50;;;;;;;6.90;5.10;;;;;;;22.26;40.18;98509.00;217964;1257;139247;-78
2023/04/24 14:25:54;;;;;;;7.40;5.90;;;;;;;22.33;40.58;98501.95;217748;1256;139569;-77
2023/04/24 14:30:58;;;;;;;7.80;4.90;;;;;;;22.22;40.38;98500.56;218230;1257;139405;-77
2023/04/24 14:36:02;;;;;;;8.40;5.00;;;;;;;22.11;40.74;98494.23;217591;1257;138844;-76
2023/04/24 14:41:09;;;;;;;5.90;5.40;;;;;;;21.99;41.01;98491.67;217748;1259;139115;-79
2023/04/24 14:46:16;;;;;;;6.20;5.10;;;;;;;21.83;41.20;98491.80;217977;1257;138637;-82
2023/04/24 14:51:21;;;;;;;5.80;4.50;;;;;;;21.61;41.76;98485.20;217648;1257;139641;-82
2023/04/24 14:56:25;;;;;;;5.80;5.30;;;;;;;21.47;42.28;98477.34;217571;1260;139679;-76
2023/04/24 15:01:28;;;;;;;5.80;5.40;;;;;;;21.26;42.46;98473.40;217772;1259;141458;-74
2023/04/24 15:06:32;;;;;;;6.70;5.20;;;;;;;21.19;42.81;98473.77;218198;1259;139235;-73
2023/04/24 15:11:36;;;;;;;6.20;5.60;;;;;;;21.22;43.10;98470.63;217782;1257;139888;-75
2023/04/24 15:16:40;;;;;;;6.70;6.10;;;;;;;21.29;43.44;98475.06;217594;1259;139164;-74
2023/04/24 15:21:44;;;;;;;7.10;6.50;;;;;;;21.20;43.71;98477.59;217236;1257;140548;-71
2023/04/24 15:26:47;;;;;;;6.70;6.00;;;;;;;21.03;43.92;98478.78;218818;1256;139200;-72
2023/04/24 15:31:50;;;;;;;7.20;5.30;;;;;;;20.85;43.63;98483.59;217680;1257;138940;-72
2023/04/24 15:36:52;;;;;;;5.60;5.20;;;;;;;20.57;43.65;98487.48;217632;1259;139477;-72
2023/04/24 15:41:55;;;;;;;7.50;5.30;;;;;;;20.20;43.60;98486.84;217639;1257;139461;-72
2023/04/24 15:47:00;;;;;;;7.50;5.50;;;;;;;19.94;43.93;98488.13;217491;1257;140233;-73
2023/04/24 15:52:03;;;;;;;6.40;5.90;;;;;;;19.68;44.34;98498.07;217535;1257;139454;-70
2023/04/24 15:57:05;;;;;;;5.60;5.10;;;;;;;19.48;44.94;98503.33;220578;1255;139706;-71
2023/04/24 16:02:10;;;;;;;5.90;5.10;;;;;;;19.37;45.27;98512.23;219980;1257;138940;-72
2023/04/24 16:07:16;;;;;;;10.50;5.70;;;;;;;19.34;45.69;98516.98;219063;1257;139460;-68
2023/04/24 16:12:20;;;;;;;7.30;5.50;;;;;;;19.23;46.14;98524.95;218460;1257;139699;-75
2023/04/24 16:17:23;;;;;;;6.00;5.40;;;;;;;19.08;46.46;98542.61;218599;1257;141186;-74
2023/04/24 16:22:26;;;;;;;6.00;5.40;;;;;;;18.84;46.26;98545.61;217455;1257;140035;-75
2023/04/24 16:27:32;;;;;;;6.90;5.90;;;;;;;18.55;46.30;98549.92;217661;1259;139751;-75
2023/04/24 16:32:35;;;;;;;6.30;5.80;;;;;;;18.32;46.52;98555.61;217673;1260;139955;-73
2023/04/24 16:37:37;;;;;;;6.50;5.70;;;;;;;18.09;46.73;98557.61;217669;1257;140115;-73
2023/04/24 16:42:40;;;;;;;5.10;4.70;;;;;;;17.93;46.96;98552.84;217536;1257;141458;-73
2023/04/24 16:47:42;;;;;;;5.70;5.30;;;;;;;17.79;47.43;98557.16;217610;1257;139972;-73
2023/04/24 16:52:45;;;;;;;6.60;6.10;;;;;;;17.61;47.68;98556.95;217770;1256;139301;-71
2023/04/24 16:57:51;;;;;;;9.30;6.10;;;;;;;17.37;47.83;98556.00;217488;1259;139940;-73
2023/04/24 17:02:54;;;;;;;7.90;5.40;;;;;;;17.12;48.12;98563.52;217752;1256;139387;-76
2023/04/24 17:08:00;;;;;;;6.60;6.10;;;;;;;16.98;48.49;98561.13;218357;1260;139089;-75
2023/04/24 17:13:04;;;;;;;5.60;5.00;;;;;;;16.88;48.89;98564.23;217660;1257;139470;-71
2023/04/24 17:18:08;;;;;;;7.60;4.90;;;;;;;16.76;49.25;98565.21;217510;1260;138911;-72
2023/04/24 17:23:12;;;;;;;5.70;5.20;;;;;;;16.62;49.66;98566.94;217484;1257;140171;-73
2023/04/24 17:28:35;;;;;;;5.70;5.30;;;;;;;16.48;49.94;98566.15;217547;1257;141115;-72
2023/04/24 17:33:38;;;;;;;7.30;5.90;;;;;;;16.28;50.47;98566.61;217458;1259;139887;-72
2023/04/24 17:38:39;;;;;;;6.10;5.30;;;;;;;16.15;50.82;98568.46;217529;1257;140079;-72
2023/04/24 17:43:42;;;;;;;7.70;5.90;;;;;;;15.99;51.33;98570.52;217892;1259;139088;-72
2023/04/24 17:48:45;;;;;;;5.70;5.20;;;;;;;15.85;51.88;98572.20;219310;1256;139441;-75
2023/04/24 17:53:51;;;;;;;6.80;5.90;;;;;;;15.73;52.23;98569.66;219328;1257;139571;-71
2023/04/24 17:58:54;;;;;;;6.00;5.30;;;;;;;15.62;52.65;98574.15;218327;1260;139160;-74
2023/04/24 18:03:57;;;;;;;7.00;5.80;;;;;;;15.48;53.27;98582.07;217760;1257;140037;-72
2023/04/24 18:09:00;;;;;;;6.30;5.00;;;;;;;15.33;53.49;98580.80;218248;1257;138939;-74
2023/04/24 18:14:02;;;;;;;8.20;5.90;;;;;;;15.22;54.05;98577.51;218106;1260;139826;-71
2023/04/24 18:19:05;;;;;;;6.70;6.00;;;;;;;15.08;54.45;98587.96;217987;1260;139023;-74
2023/04/24 18:24:08;;;;;;;7.90;7.20;;;;;;;14.96;54.92;98601.73;217573;1259;139495;-76
2023/04/24 18:29:11;;;;;;;6.40;5.80;;;;;;;14.86;55.30;98604.30;217640;1260;139160;-76
2023/04/24 18:34:13;;;;;;;5.20;4.80;;;;;;;14.76;55.81;98608.83;218800;1257;139147;-76
2023/04/24 18:39:15;;;;;;;8.10;7.30;;;;;;;14.67;56.14;98621.30;218331;1260;141411;-72
2023/04/24 18:44:18;;;;;;;6.70;6.10;;;;;;;14.58;56.61;98626.61;218585;1258;140401;-70
2023/04/24 18:49:21;;;;;;;7.80;7.10;;;;;;;14.51;56.93;98627.02;217905;1257;150877;-77
2023/04/24 18:54:25;;;;;;;7.00;6.40;;;;;;;14.49;57.35;98633.42;217421;1260;139514;-75
2023/04/24 18:59:28;;;;;;;7.20;6.40;;;;;;;14.49;57.53;98644.25;217978;1256;139590;-77
2023/04/24 19:04:31;;;;;;;8.20;7.40;;;;;;;14.46;57.96;98646.11;217696;1260;139108;-73
2023/04/24 19:09:34;;;;;;;8.00;6.90;;;;;;;14.42;58.40;98647.48;219611;1257;138923;-75
2023/04/24 19:14:37;;;;;;;8.20;5.90;;;;;;;14.38;58.81;98650.69;217762;1260;139296;-73
2023/04/24 19:19:40;;;;;;;7.30;6.60;;;;;;;14.33;59.18;98656.39;217823;1257;139719;-77
2023/04/24 19:24:44;;;;;;;12.20;8.40;;;;;;;14.26;59.56;98663.36;217452;1260;139395;-76
2023/04/24 19:29:48;;;;;;;9.90;8.70;;;;;;;14.20;60.00;98664.12;220503;1256;139997;-74
2023/04/24 19:34:52;;;;;;;9.10;8.00;;;;;;;14.14;60.74;98666.00;220662;1258;139427;-77
2023/04/24 19:39:55;;;;;;;8.50;7.60;;;;;;;14.11;61.12;98663.35;220290;1257;139489;-70
2023/04/24 19:44:58;;;;;;;8.60;7.90;;;;;;;14.12;61.56;98659.43;220505;1257;139633;-73
2023/04/24 19:50:00;;;;;;;15.60;8.80;;;;;;;14.14;61.82;98656.89;220241;1257;140181;-78
2023/04/24 19:55:03;;;;;;;9.80;7.90;;;;;;;14.16;62.03;98658.74;219407;1257;140892;-76
2023/04/24 20:00:07;;;;;;;8.30;7.20;;;;;;;14.18;62.19;98665.81;217711;1258;140852;-78
2023/04/24 20:05:11;;;;;;;8.20;7.20;;;;;;;14.16;62.47;98676.65;218097;1260;139892;-76
2023/04/24 20:10:13;;;;;;;6.10;5.50;;;;;;;14.13;62.69;98681.92;217871;1260;140735;-74
2023/04/24 20:15:15;;;;;;;7.70;6.30;;;;;;;14.07;62.96;98675.18;218520;1260;140604;-72
2023/04/24 20:20:18;;;;;;;6.80;6.10;;;;;;;14.04;63.14;98678.55;217741;1258;140737;-74
2023/04/24 20:25:21;;;;;;;10.50;7.80;;;;;;;14.02;63.98;98681.41;217817;1257;140862;-68
2023/04/24 20:30:25;;;;;;;13.00;8.00;;;;;;;13.96;64.64;98686.77;217979;1260;139718;-73
2023/04/24 20:35:27;;;;;;;8.90;7.40;;;;;;;13.86;65.15;98695.37;218293;1257;140252;-85
2023/04/24 20:40:35;;;;;;;11.10;7.20;;;;;;;13.74;66.05;98702.01;217791;1257;140809;-75
2023/04/24 20:45:59;;;;;;;6.60;5.90;;;;;;;13.64;66.42;98700.86;217692;1257;139846;-73
2023/04/24 20:51:03;;;;;;;5.90;4.20;;;;;;;13.57;66.69;98703.05;217705;1260;141214;-75
2023/04/24 20:56:07;;;;;;;5.90;4.80;;;;;;;13.46;66.97;98700.77;218915;1260;140019;-72
2023/04/24 21:01:11;;;;;;;7.00;5.20;;;;;;;13.38;67.32;98696.87;218703;1257;140676;-71
2023/04/24 21:06:15;;;;;;;8.60;4.80;;;;;;;13.31;67.95;98700.23;217967;1257;139525;-70
2023/04/24 21:11:18;;;;;;;6.30;4.80;;;;;;;13.22;68.06;98697.44;218574;1257;140998;-74
2023/04/24 21:16:45;;;;;;;5.70;4.60;;;;;;;13.09;68.67;98695.58;217743;1257;139562;-71
2023/04/24 21:21:50;;;;;;;13.00;5.10;;;;;;;12.97;69.03;98688.73;220508;1257;140908;-71
2023/04/24 21:26:57;;;;;;;6.10;5.30;;;;;;;12.84;69.21;98674.34;219084;1257;139823;-74
2023/04/24 21:31:59;;;;;;;7.80;4.40;;;;;;;12.77;69.65;98663.70;219079;1256;151800;-69
2023/04/24 21:37:03;;;;;;;5.00;4.50;;;;;;;12.69;69.74;98668.32;218691;1260;140544;-71
2023/04/24 21:42:06;;;;;;;6.80;5.30;;;;;;;12.59;70.19;98675.52;218274;1260;140037;-71
2023/04/24 21:47:09;;;;;;;8.00;4.60;;;;;;;12.50;70.74;98683.91;218852;1257;139703;-70
2023/04/24 21:52:13;;;;;;;4.20;3.90;;;;;;;12.44;71.22;98684.84;217793;1258;139527;-73
2023/04/24 21:57:16;;;;;;;5.10;4.60;;;;;;;12.38;71.45;98684.59;219723;1257;140183;-71
2023/04/24 22:02:19;;;;;;;8.50;4.90;;;;;;;12.36;71.44;98676.99;218012;1257;140273;-75
2023/04/24 22:07:22;;;;;;;5.40;4.50;;;;;;;12.31;71.38;98675.35;217772;1260;141337;-72
2023/04/24 22:12:25;;;;;;;5.90;4.90;;;;;;;12.26;71.74;98669.27;218034;1260;140716;-72
2023/04/24 22:17:28;;;;;;;5.40;4.40;;;;;;;12.24;71.80;98667.63;217680;1259;140828;-71
2023/04/24 22:22:32;;;;;;;6.50;4.70;;;;;;;12.15;71.94;98672.04;217681;1260;140501;-75
2023/04/24 22:27:46;;;;;;;9.60;5.40;;;;;;;12.10;72.31;98672.79;217471;1257;139814;-74
2023/04/24 22:33:13;;;;;;;5.60;4.20;;;;;;;12.05;72.46;98669.96;218705;1256;140409;-83
2023/04/24 22:38:27;;;;;;;8.90;5.80;;;;;;;12.00;72.68;98668.52;218339;1256;140975;-78
2023/04/24 22:43:30;;;;;;;4.90;4.00;;;;;;;11.99;72.82;98676.86;217910;1257;139907;-73
2023/04/24 22:48:35;;;;;;;7.90;5.10;;;;;;;11.95;72.92;98682.20;217876;1256;140597;-72
2023/04/24 22:53:38;;;;;;;4.60;4.10;;;;;;;11.91;73.06;98687.94;218645;1257;139945;-77
2023/04/24 22:58:46;;;;;;;6.40;3.70;;;;;;;11.85;73.33;98696.65;218771;1257;139956;-78
2023/04/24 23:04:10;;;;;;;6.40;4.80;;;;;;;11.80;73.53;98697.45;218717;1257;140149;-73
2023/04/24 23:09:30;;;;;;;3.60;3.30;;;;;;;11.73;73.40;98698.96;217720;1257;140213;-74
2023/04/24 23:14:41;;;;;;;10.10;3.90;;;;;;;11.65;73.57;98694.89;220476;1256;141926;-78